createdAt,value
2019-02-19T00:58:57.875Z,12.23
2019-02-19T01:01:31.354Z,11.12
2019-02-19T01:04:05.845Z,15.30
2019-02-19T01:06:39.148Z,9.58
2019-02-19T01:09:12.153Z,15.20
2019-02-19T01:11:45.868Z,12.88
2019-02-19T01:14:19.374Z,14.90
2019-02-19T01:16:52.336Z,11.68
2019-02-19T01:19:25.570Z,11.22
2019-02-19T01:21:58.632Z,12.73
2019-02-19T01:24:31.822Z,12.00
2019-02-19T01:27:05.154Z,17.00
2019-02-19T01:29:38.632Z,11.83
2019-02-19T01:32:11.997Z,15.00
2019-02-19T01:34:44.210Z,11.65
2019-02-19T01:37:17.639Z,17.52
2019-02-19T01:39:50.394Z,13.58
2019-02-19T01:42:23.663Z,13.78
2019-02-19T01:44:55.936Z,12.88
2019-02-19T01:47:29.278Z,11.93
2019-02-19T01:50:02.306Z,12.75
2019-02-19T01:52:35.169Z,11.88
2019-02-19T01:55:07.962Z,15.80
2019-02-19T01:57:41.286Z,13.45
2019-02-19T02:00:13.586Z,11.12
2019-02-19T02:02:46.692Z,12.93
2019-02-19T02:05:20.028Z,11.40
2019-02-19T02:07:53.006Z,12.30
2019-02-19T02:10:26.001Z,11.95
2019-02-19T02:13:02.247Z,13.00
2019-02-19T02:15:42.435Z,13.43
2019-02-19T02:18:13.362Z,12.23
2019-02-19T02:20:46.122Z,16.48
2019-02-19T02:23:18.858Z,12.73
2019-02-19T02:25:52.231Z,16.00
2019-02-19T02:28:25.891Z,12.65
2019-02-19T02:30:58.890Z,14.65
2019-02-19T02:33:31.790Z,13.70
2019-02-19T02:36:05.579Z,16.50
2019-02-19T02:38:39.361Z,12.28
2019-02-19T02:41:13.210Z,13.58
2019-02-19T02:43:46.101Z,13.48
2019-02-19T02:46:19.265Z,13.65
2019-02-19T02:48:52.905Z,17.05
2019-02-19T02:51:27.416Z,14.55
2019-02-19T02:54:00.917Z,13.20
2019-02-19T02:56:34.635Z,13.20
2019-02-19T02:59:07.830Z,14.75
2019-02-19T03:01:40.497Z,16.75
2019-02-19T03:04:14.322Z,14.90
2019-02-19T03:07:00.683Z,13.72
2019-02-19T03:09:33.865Z,13.20
2019-02-19T03:12:07.591Z,20.72
2019-02-19T03:14:41.216Z,18.48
2019-02-19T03:17:14.180Z,18.90
2019-02-19T03:19:47.158Z,14.80
2019-02-19T03:22:20.372Z,19.62
2019-02-19T03:24:53.900Z,20.08
2019-02-19T03:27:26.487Z,21.87
2019-02-19T03:29:59.709Z,21.57
2019-02-19T03:32:33.184Z,23.38
2019-02-19T03:35:06.457Z,18.95
2019-02-19T03:37:40.010Z,21.35
2019-02-19T03:40:12.551Z,21.23
2019-02-19T03:42:45.210Z,17.75
2019-02-19T03:45:18.776Z,18.32
2019-02-19T03:47:51.797Z,19.15
2019-02-19T03:50:26.596Z,18.27
2019-02-19T03:52:59.993Z,22.52
2019-02-19T03:55:33.535Z,21.93
2019-02-19T03:58:06.601Z,24.32
2019-02-19T04:00:39.837Z,23.62
2019-02-19T04:03:13.117Z,21.42
2019-02-19T04:05:46.702Z,22.50
2019-02-19T04:08:19.867Z,20.05
2019-02-19T04:10:53.198Z,24.23
2019-02-19T04:13:26.590Z,27.42
2019-02-19T04:16:01.106Z,24.67
2019-02-19T04:18:34.370Z,28.32
2019-02-19T04:21:07.778Z,27.65
2019-02-19T04:23:41.093Z,32.50
2019-02-19T04:26:14.977Z,32.75
2019-02-19T04:28:48.723Z,32.55
2019-02-19T04:31:22.540Z,26.73
2019-02-19T04:33:56.287Z,27.20
2019-02-19T04:36:29.606Z,31.75
2019-02-19T04:39:03.163Z,28.23
2019-02-19T04:41:38.454Z,29.82
2019-02-19T04:44:10.789Z,27.80
2019-02-19T04:46:44.218Z,32.33
2019-02-19T04:49:17.292Z,26.10
2019-02-19T04:51:50.580Z,31.20
2019-02-19T04:54:23.294Z,27.22
2019-02-19T04:56:56.915Z,30.37
2019-02-19T04:59:29.864Z,26.93
2019-02-19T05:02:03.093Z,30.75
2019-02-19T05:04:36.045Z,25.80
2019-02-19T05:07:09.657Z,31.25
2019-02-19T05:09:43.489Z,29.85
2019-02-19T05:12:16.502Z,30.35
2019-02-19T05:14:49.939Z,26.70
2019-02-19T05:17:23.773Z,26.48
2019-02-19T05:19:57.518Z,28.75
2019-02-19T05:22:31.386Z,25.88
2019-02-19T05:25:04.844Z,29.37
2019-02-19T05:27:37.628Z,26.97
2019-02-19T05:30:11.468Z,30.97
2019-02-19T05:32:44.425Z,32.90
2019-02-19T05:35:17.956Z,27.75
2019-02-19T05:37:50.913Z,26.55
2019-02-19T05:40:23.780Z,25.57
2019-02-19T05:42:56.807Z,29.07
2019-02-19T05:45:30.663Z,27.40
2019-02-19T05:48:05.233Z,29.45
2019-02-19T05:50:38.872Z,28.30
2019-02-19T05:53:12.423Z,30.32
2019-02-19T05:55:46.431Z,28.80
2019-02-19T05:58:20.419Z,32.23
2019-02-19T06:00:53.004Z,36.33
2019-02-19T06:03:26.258Z,33.18
2019-02-19T06:05:59.395Z,33.40
2019-02-19T06:08:32.980Z,29.90
2019-02-19T06:11:06.845Z,29.20
2019-02-19T06:13:40.719Z,34.10
2019-02-19T06:16:13.990Z,35.95
2019-02-19T06:18:47.118Z,31.57
2019-02-19T06:21:21.662Z,37.38
2019-02-19T06:23:54.627Z,32.13
2019-02-19T06:26:27.649Z,37.17
2019-02-19T06:29:01.294Z,33.75
2019-02-19T06:31:34.358Z,34.55
2019-02-19T06:34:07.391Z,31.57
2019-02-19T06:36:40.640Z,29.67
2019-02-19T06:39:14.483Z,27.75
2019-02-19T06:41:47.510Z,33.38
2019-02-19T06:44:20.981Z,33.70
2019-02-19T06:46:53.671Z,29.10
2019-02-19T06:49:27.393Z,32.33
2019-02-19T06:52:00.369Z,28.57
2019-02-19T06:54:33.769Z,32.17
2019-02-19T06:57:06.751Z,30.97
2019-02-19T06:59:40.166Z,31.15
2019-02-19T07:02:31.573Z,31.55
2019-02-19T07:05:07.899Z,30.37
2019-02-19T07:07:41.330Z,31.25
2019-02-19T07:10:14.754Z,29.45
2019-02-19T07:12:47.159Z,29.87
2019-02-19T07:15:20.613Z,28.83
2019-02-19T07:17:53.284Z,30.15
2019-02-19T07:20:26.360Z,30.70
2019-02-19T07:22:59.864Z,32.75
2019-02-19T07:25:33.265Z,32.58
2019-02-19T07:28:06.344Z,29.92
2019-02-19T07:30:40.176Z,30.75
2019-02-19T07:33:14.007Z,25.15
2019-02-19T07:35:46.972Z,33.08
2019-02-19T07:38:19.942Z,30.12
2019-02-19T07:40:53.522Z,28.20
2019-02-19T07:43:26.894Z,31.97
2019-02-19T07:46:00.714Z,32.08
2019-02-19T07:48:34.443Z,33.35
2019-02-19T07:51:07.454Z,28.25
2019-02-19T07:53:40.433Z,30.72
2019-02-19T07:56:13.374Z,32.08
2019-02-19T07:58:46.352Z,32.23
2019-02-19T08:01:20.167Z,31.82
2019-02-19T08:03:53.948Z,35.80
2019-02-19T08:06:27.410Z,31.27
2019-02-19T08:09:02.885Z,30.70
2019-02-19T08:11:37.799Z,32.45
2019-02-19T08:14:12.620Z,28.02
2019-02-19T08:16:45.275Z,33.20
2019-02-19T08:19:19.476Z,29.12
2019-02-19T08:21:52.817Z,25.68
2019-02-19T08:24:26.061Z,27.60
2019-02-19T08:26:59.702Z,33.63
2019-02-19T08:29:33.257Z,30.97
2019-02-19T08:32:06.731Z,31.80
2019-02-19T08:34:39.691Z,33.75
2019-02-19T08:37:13.607Z,32.63
2019-02-19T08:39:46.757Z,32.20
2019-02-19T08:42:20.789Z,34.65
2019-02-19T08:44:54.324Z,32.10
2019-02-19T08:47:26.646Z,31.30
2019-02-19T08:49:59.994Z,33.45
2019-02-19T08:52:32.961Z,31.27
2019-02-19T08:55:06.761Z,29.30
2019-02-19T08:57:39.855Z,28.65
2019-02-19T09:00:13.559Z,29.18
2019-02-19T09:02:46.595Z,33.88
2019-02-19T09:05:21.474Z,27.98
2019-02-19T09:07:55.269Z,32.17
2019-02-19T09:10:28.646Z,31.20
2019-02-19T09:13:02.360Z,27.98
2019-02-19T09:15:36.070Z,27.42
2019-02-19T09:18:09.591Z,23.25
2019-02-19T09:20:43.374Z,30.25
2019-02-19T09:23:16.836Z,25.10
2019-02-19T09:25:50.639Z,24.67
2019-02-19T09:28:24.137Z,22.13
2019-02-19T09:30:57.549Z,22.22
2019-02-19T09:33:30.978Z,22.48
2019-02-19T09:36:05.312Z,33.80
2019-02-19T09:38:38.612Z,32.10
2019-02-19T09:41:11.312Z,28.05
2019-02-19T09:43:44.197Z,23.45
2019-02-19T09:46:17.301Z,25.77
2019-02-19T09:48:50.855Z,30.70
2019-02-19T09:51:24.249Z,28.40
2019-02-19T09:53:57.316Z,22.52
2019-02-19T09:56:31.100Z,21.10
2019-02-19T09:59:04.149Z,23.12
2019-02-19T10:01:37.453Z,24.52
2019-02-19T10:04:13.500Z,24.25
2019-02-19T10:06:47.020Z,26.10
2019-02-19T10:09:19.792Z,20.10
2019-02-19T10:11:53.577Z,30.85
2019-02-19T10:14:26.341Z,22.55
2019-02-19T10:17:00.060Z,17.65
2019-02-19T10:19:33.147Z,24.00
2019-02-19T10:22:06.081Z,21.50
2019-02-19T10:24:40.791Z,19.50
2019-02-19T10:27:14.803Z,21.82
2019-02-19T10:29:48.161Z,20.43
2019-02-19T10:32:21.738Z,19.12
2019-02-19T10:34:54.509Z,18.25
2019-02-19T10:37:28.234Z,23.77
2019-02-19T10:40:00.757Z,17.55
2019-02-19T10:42:34.063Z,20.45
2019-02-19T10:45:08.627Z,18.05
2019-02-19T10:47:41.658Z,19.92
2019-02-19T10:50:15.165Z,24.15
2019-02-19T10:52:47.841Z,23.38
2019-02-19T10:55:20.840Z,20.08
2019-02-19T10:57:55.161Z,22.82
2019-02-19T11:00:27.970Z,18.12
2019-02-19T11:03:01.552Z,15.15
2019-02-19T11:05:34.944Z,17.77
2019-02-19T11:08:08.102Z,20.45
2019-02-19T11:10:41.539Z,20.05
2019-02-19T11:13:14.730Z,13.93
2019-02-19T11:15:47.713Z,18.00
2019-02-19T11:18:28.044Z,21.82
2019-02-19T11:20:56.286Z,16.17
2019-02-19T11:23:29.421Z,16.48
2019-02-19T11:26:02.392Z,14.00
2019-02-19T11:28:36.967Z,15.55
2019-02-19T11:31:10.051Z,16.52
2019-02-19T11:33:43.219Z,18.40
2019-02-19T11:36:16.227Z,17.77
2019-02-19T11:38:50.174Z,11.40
2019-02-19T11:41:23.625Z,15.08
2019-02-19T11:43:56.719Z,14.98
2019-02-19T11:46:29.691Z,13.53
2019-02-19T11:49:03.094Z,14.25
2019-02-19T11:51:36.804Z,17.42
2019-02-19T11:54:10.204Z,12.47
2019-02-19T11:56:43.506Z,13.28
2019-02-19T11:59:16.526Z,11.95
2019-02-19T12:01:49.368Z,14.43
2019-02-19T12:04:22.351Z,13.68
2019-02-19T12:06:54.966Z,17.05
2019-02-19T12:09:28.536Z,11.45
2019-02-19T12:12:02.244Z,12.10
2019-02-19T12:14:35.838Z,12.40
2019-02-19T12:17:08.957Z,14.40
2019-02-19T12:19:42.546Z,10.10
2019-02-19T12:22:15.157Z,9.35
2019-02-19T12:24:48.805Z,13.98
2019-02-19T12:27:22.213Z,16.95
2019-02-19T12:29:56.159Z,10.53
2019-02-19T12:32:29.609Z,9.00
2019-02-19T12:35:02.379Z,12.73
2019-02-19T12:37:35.509Z,9.40
2019-02-19T12:40:09.606Z,10.10
2019-02-19T12:42:42.584Z,13.43
2019-02-19T12:45:15.625Z,9.83
2019-02-19T12:47:49.104Z,8.85
2019-02-19T12:50:21.694Z,10.40
2019-02-19T12:52:54.756Z,13.72
2019-02-19T12:55:28.496Z,11.90
2019-02-19T12:58:01.948Z,12.00
2019-02-19T13:00:35.661Z,11.33
2019-02-19T13:03:08.988Z,9.03
2019-02-19T13:05:41.932Z,15.13
2019-02-19T13:08:14.917Z,12.15
2019-02-19T13:10:47.927Z,11.78
2019-02-19T13:13:21.088Z,11.55
2019-02-19T13:15:54.521Z,15.28
2019-02-19T13:18:28.119Z,9.30
2019-02-19T13:21:01.637Z,11.18
2019-02-19T13:23:34.862Z,12.00
2019-02-19T13:26:08.369Z,11.45
2019-02-19T13:28:42.208Z,8.35
2019-02-19T13:31:16.015Z,9.28
2019-02-19T13:33:48.590Z,13.00
2019-02-19T13:36:21.870Z,10.68
2019-02-19T13:38:55.238Z,9.58
2019-02-19T13:41:27.976Z,12.70
2019-02-19T13:44:01.661Z,14.15
2019-02-19T13:46:36.416Z,9.03
2019-02-19T13:49:12.296Z,6.65
2019-02-19T13:51:45.865Z,11.63
2019-02-19T13:54:30.535Z,12.15
2019-02-19T13:57:03.717Z,12.73
2019-02-19T13:59:36.900Z,12.95
2019-02-19T14:02:09.713Z,11.83
2019-02-19T14:04:43.208Z,10.60
2019-02-19T14:07:16.492Z,10.40
2019-02-19T14:09:50.174Z,8.68
2019-02-19T14:12:23.189Z,11.18
2019-02-19T14:15:00.773Z,13.03
2019-02-19T14:17:34.638Z,9.68
2019-02-19T14:20:28.863Z,14.87
2019-02-19T14:23:27.337Z,9.43
2019-02-19T14:26:13.965Z,9.40
2019-02-19T14:28:54.840Z,14.47
2019-02-19T14:31:55.839Z,8.78
2019-02-19T14:34:48.494Z,13.80
2019-02-19T14:37:52.009Z,9.85
2019-02-19T14:40:47.842Z,11.70
2019-02-19T14:43:40.410Z,12.70
2019-02-19T14:46:36.105Z,9.28
2019-02-19T14:49:37.513Z,9.13
2019-02-19T14:52:35.230Z,12.65
2019-02-19T14:55:33.517Z,8.65
2019-02-19T14:58:25.844Z,16.37
2019-02-19T15:01:12.262Z,13.00
2019-02-19T15:04:17.113Z,11.85
2019-02-19T15:07:07.807Z,16.67
2019-02-19T15:10:18.576Z,12.45
2019-02-19T15:13:19.408Z,11.08
2019-02-19T15:16:11.063Z,10.53
2019-02-19T15:19:02.671Z,11.80
2019-02-19T15:22:01.055Z,8.18
2019-02-19T15:24:49.917Z,8.73
2019-02-19T15:27:29.903Z,13.20
2019-02-19T15:30:22.286Z,10.65
2019-02-19T15:33:14.332Z,15.38
2019-02-19T15:36:09.982Z,8.30
2019-02-19T15:39:09.273Z,17.82
2019-02-19T15:42:05.567Z,9.28
2019-02-19T15:45:02.958Z,9.35
2019-02-19T15:47:55.822Z,10.72
2019-02-19T15:50:51.612Z,9.93
2019-02-19T15:53:34.147Z,12.75
2019-02-19T15:56:19.936Z,16.48
2019-02-19T15:59:12.629Z,11.38
2019-02-19T16:01:52.114Z,14.07
2019-02-19T16:04:56.512Z,11.55
2019-02-19T16:07:52.364Z,14.73
2019-02-19T16:10:40.934Z,14.70
2019-02-19T16:13:24.947Z,12.03
2019-02-19T16:16:15.980Z,11.93
2019-02-19T16:19:05.836Z,15.13
2019-02-19T16:21:50.310Z,10.30
2019-02-19T16:24:59.192Z,13.65
2019-02-19T16:27:55.360Z,15.18
2019-02-19T16:30:47.127Z,15.68
2019-02-19T16:33:42.858Z,12.25
2019-02-19T16:36:28.813Z,11.15
2019-02-19T16:39:21.485Z,10.30
2019-02-19T16:42:04.901Z,9.25
2019-02-19T16:45:09.435Z,10.60
2019-02-19T16:48:00.718Z,10.65
2019-02-19T16:51:02.684Z,8.23
2019-02-19T16:53:58.943Z,11.55
2019-02-19T16:56:50.214Z,8.53
2019-02-19T16:59:43.327Z,7.47
2019-02-19T17:02:48.498Z,6.12
2019-02-19T17:05:37.641Z,8.50
2019-02-19T17:08:18.170Z,8.58
2019-02-19T17:11:11.221Z,9.83
2019-02-19T17:14:01.932Z,11.50
2019-02-19T17:16:55.111Z,10.10
2019-02-19T17:19:46.182Z,8.45
2019-02-19T17:22:54.020Z,9.03
2019-02-19T17:25:49.877Z,10.45
2019-02-19T17:28:42.508Z,6.08
2019-02-19T17:31:24.608Z,5.58
2019-02-19T17:34:14.856Z,8.28
2019-02-19T17:37:07.195Z,12.28
2019-02-19T17:40:03.048Z,10.93
2019-02-19T17:42:55.130Z,8.45
2019-02-19T17:45:46.747Z,8.93
2019-02-19T17:48:42.159Z,9.20
2019-02-19T17:51:34.767Z,4.83
2019-02-19T17:54:17.194Z,6.75
2019-02-19T17:57:16.061Z,5.25
2019-02-19T18:00:09.786Z,5.10
2019-02-19T18:03:05.293Z,8.25
2019-02-19T18:06:01.434Z,9.93
2019-02-19T18:08:41.185Z,4.85
2019-02-19T18:11:33.052Z,10.08
2019-02-19T18:14:24.635Z,6.37
2019-02-19T18:17:29.179Z,8.65
2019-02-19T18:20:02.562Z,8.40
2019-02-19T18:22:36.500Z,7.80
2019-02-19T18:25:09.265Z,9.83
2019-02-19T18:27:43.321Z,8.35
2019-02-19T18:30:17.286Z,8.10
2019-02-19T18:32:50.146Z,10.88
2019-02-19T18:35:23.718Z,7.72
2019-02-19T18:37:56.897Z,10.60
2019-02-19T18:40:30.817Z,7.12
2019-02-19T18:43:03.964Z,5.40
2019-02-19T18:45:37.111Z,5.80
2019-02-19T18:48:09.452Z,5.78
2019-02-19T18:50:43.029Z,7.37
2019-02-19T18:53:15.809Z,8.60
2019-02-19T18:55:51.138Z,11.03
2019-02-19T18:58:23.961Z,6.17
2019-02-19T19:00:58.528Z,7.17
2019-02-19T19:03:32.110Z,6.75
2019-02-19T19:06:05.721Z,8.53
2019-02-19T19:08:39.771Z,4.55
2019-02-19T19:11:13.132Z,10.08
2019-02-19T19:13:46.298Z,5.30
2019-02-19T19:16:19.906Z,7.92
2019-02-19T19:18:53.431Z,5.33
2019-02-19T19:21:27.532Z,7.87
2019-02-19T19:24:01.243Z,6.87
2019-02-19T19:26:34.310Z,9.10
2019-02-19T19:29:08.447Z,8.03
2019-02-19T19:31:41.418Z,5.05
2019-02-19T19:34:14.451Z,11.10
2019-02-19T19:36:47.588Z,7.28
2019-02-19T19:39:20.355Z,3.30
2019-02-19T19:41:53.473Z,8.05
2019-02-19T19:44:26.949Z,5.60
2019-02-19T19:47:00.076Z,9.00
2019-02-19T19:49:32.837Z,8.10
2019-02-19T19:52:06.388Z,7.10
2019-02-19T19:54:39.450Z,9.35
2019-02-19T19:57:13.386Z,5.00
2019-02-19T19:59:46.156Z,5.60
2019-02-19T20:02:20.274Z,11.38
2019-02-19T20:04:53.357Z,5.92
2019-02-19T20:07:26.957Z,6.42
2019-02-19T20:10:01.155Z,12.30
2019-02-19T20:12:36.090Z,8.73
2019-02-19T20:15:09.593Z,7.42
2019-02-19T20:17:42.407Z,6.87
2019-02-19T20:20:16.217Z,9.53
2019-02-19T20:22:49.843Z,9.38
2019-02-19T20:25:23.344Z,6.85
2019-02-19T20:27:57.623Z,10.48
2019-02-19T20:30:30.707Z,10.78
2019-02-19T20:33:04.180Z,8.58
2019-02-19T20:35:37.377Z,7.05
2019-02-19T20:38:10.582Z,7.47
2019-02-19T20:40:44.159Z,8.28
2019-02-19T20:43:18.574Z,10.13
2019-02-19T20:45:51.377Z,8.45
2019-02-19T20:48:24.939Z,10.93
2019-02-19T20:50:58.083Z,7.17
2019-02-19T20:53:31.661Z,9.73
2019-02-19T20:56:04.875Z,8.53
2019-02-19T20:58:38.463Z,8.33
2019-02-19T21:01:12.480Z,7.42
2019-02-19T21:03:45.657Z,9.65
2019-02-19T21:06:18.862Z,8.50
2019-02-19T21:08:53.085Z,12.43
2019-02-19T21:11:27.709Z,8.25
2019-02-19T21:14:02.773Z,7.65
2019-02-19T21:16:36.347Z,8.95
2019-02-19T21:19:09.861Z,9.10
2019-02-19T21:21:45.137Z,6.25
2019-02-19T21:24:17.923Z,14.28
2019-02-19T21:26:51.033Z,9.63
2019-02-19T21:29:24.846Z,6.00
2019-02-19T21:31:58.334Z,6.25
2019-02-19T21:34:32.239Z,11.10
2019-02-19T21:37:05.850Z,4.28
2019-02-19T21:39:38.948Z,8.00
2019-02-19T21:42:11.753Z,6.35
2019-02-19T21:44:45.255Z,9.10
2019-02-19T21:47:18.941Z,7.42
2019-02-19T21:49:52.012Z,8.00
2019-02-19T21:52:25.137Z,7.87
2019-02-19T21:54:58.551Z,11.78
2019-02-19T21:57:32.486Z,11.97
2019-02-19T22:00:07.061Z,7.92
2019-02-19T22:02:42.396Z,7.08
2019-02-19T22:05:15.114Z,7.42
2019-02-19T22:07:47.991Z,10.95
2019-02-19T22:10:20.837Z,8.10
2019-02-19T22:12:53.927Z,13.80
2019-02-19T22:15:27.616Z,12.53
2019-02-19T22:17:59.928Z,9.10
2019-02-19T22:20:53.059Z,12.40
2019-02-19T22:23:26.563Z,7.87
2019-02-19T22:25:59.659Z,7.97
2019-02-19T22:28:32.338Z,7.37
2019-02-19T22:31:05.757Z,13.62
2019-02-19T22:33:40.149Z,7.70
2019-02-19T22:36:13.649Z,8.20
2019-02-19T22:38:46.792Z,7.42
2019-02-19T22:41:20.146Z,16.15
2019-02-19T22:43:52.918Z,11.20
2019-02-19T22:46:25.927Z,8.63
2019-02-19T22:48:59.143Z,11.73
2019-02-19T22:51:33.024Z,6.70
2019-02-19T22:54:37.978Z,9.93
2019-02-19T22:57:11.062Z,12.05
2019-02-19T22:59:43.934Z,8.00
2019-02-19T23:02:20.115Z,9.55
2019-02-19T23:04:53.388Z,10.85
2019-02-19T23:07:26.104Z,14.03
2019-02-19T23:10:00.287Z,11.33
2019-02-19T23:12:33.786Z,9.58
2019-02-19T23:15:07.751Z,13.85
2019-02-19T23:17:40.502Z,9.80
2019-02-19T23:20:13.956Z,10.03
2019-02-19T23:22:47.049Z,9.45
2019-02-19T23:25:20.567Z,6.72
2019-02-19T23:27:53.663Z,12.40
2019-02-19T23:30:26.410Z,11.33
2019-02-19T23:32:59.105Z,7.37
2019-02-19T23:35:39.885Z,15.70
2019-02-19T23:38:13.683Z,13.83
2019-02-19T23:40:47.396Z,9.05
2019-02-19T23:43:20.547Z,10.98
2019-02-19T23:45:53.175Z,10.72
2019-02-19T23:48:26.249Z,9.05
2019-02-19T23:50:59.755Z,12.98
2019-02-19T23:53:34.179Z,10.70
2019-02-19T23:56:07.564Z,8.53
2019-02-19T23:58:40.205Z,13.68
